createdAt,value
2022-08-28T00:04:10.510Z,17.37
2022-08-28T00:06:41.445Z,20.17
2022-08-28T00:09:22.947Z,19.05
2022-08-28T00:11:58.688Z,19.73
2022-08-28T00:14:29.624Z,17.07
2022-08-28T00:40:06.296Z,10.58
2022-08-28T00:42:39.583Z,9.48
2022-08-28T00:45:11.257Z,12.98
2022-08-28T00:47:46.618Z,12.53
2022-08-28T00:50:19.355Z,10.40
2022-08-28T00:52:55.134Z,11.80
2022-08-28T00:55:28.037Z,10.63
2022-08-28T00:58:19.716Z,8.30
2022-08-28T01:00:51.166Z,7.33
2022-08-28T01:03:25.159Z,11.75
2022-08-28T01:05:56.694Z,8.15
2022-08-28T01:08:36.065Z,9.63
2022-08-28T01:11:08.779Z,8.05
2022-08-28T01:13:44.500Z,12.20
2022-08-28T01:16:16.906Z,9.00
2022-08-28T01:18:50.586Z,7.20
2022-08-28T01:21:22.181Z,7.55
2022-08-28T01:23:55.611Z,6.50
2022-08-28T01:26:58.840Z,7.22
2022-08-28T01:29:01.639Z,6.40
2022-08-28T01:31:34.521Z,6.22
2022-08-28T01:34:06.024Z,6.97
2022-08-28T01:36:37.581Z,9.78
2022-08-28T01:39:16.854Z,8.25
2022-08-28T01:41:47.083Z,7.62
2022-08-28T01:51:26.414Z,9.20
2022-08-28T01:53:59.476Z,7.03
2022-08-28T01:56:36.459Z,7.22
2022-08-28T01:59:11.524Z,7.67
2022-08-28T02:01:44.829Z,8.18
2022-08-28T02:04:18.448Z,7.42
2022-08-28T02:06:52.121Z,6.25
2022-08-28T02:09:33.897Z,5.42
2022-08-28T02:12:05.247Z,5.97
2022-08-28T02:15:10.538Z,4.33
2022-08-28T02:17:41.583Z,5.45
2022-08-28T02:20:16.981Z,6.92
2022-08-28T02:22:58.897Z,6.25
2022-08-28T02:25:30.788Z,6.90
2022-08-28T02:28:03.943Z,7.20
2022-08-28T02:30:34.951Z,6.58
2022-08-28T02:33:06.222Z,5.40
2022-08-28T02:35:37.377Z,10.10
2022-08-28T02:38:08.022Z,7.92
2022-08-28T02:40:39.513Z,6.62
2022-08-28T02:43:10.765Z,5.22
2022-08-28T02:45:41.830Z,6.75
2022-08-28T02:48:17.038Z,5.78
2022-08-28T02:50:50.329Z,7.55
2022-08-28T02:53:25.707Z,6.65
2022-08-28T02:56:04.241Z,4.92
2022-08-28T02:58:41.063Z,6.72
2022-08-28T03:01:10.746Z,5.70
2022-08-28T03:03:42.655Z,5.72
2022-08-28T03:06:14.885Z,7.42
2022-08-28T03:08:46.841Z,7.28
2022-08-28T03:11:17.958Z,6.50
2022-08-28T03:13:49.202Z,5.85
2022-08-28T03:16:21.406Z,9.35
2022-08-28T03:18:52.292Z,8.05
2022-08-28T03:21:23.214Z,7.20
2022-08-28T03:23:54.038Z,6.42
2022-08-28T03:26:25.850Z,6.78
2022-08-28T03:28:59.789Z,9.43
2022-08-28T03:31:34.010Z,7.58
2022-08-28T03:34:05.931Z,8.13
2022-08-28T03:36:36.944Z,9.75
2022-08-28T03:39:09.051Z,7.35
2022-08-28T03:41:42.565Z,10.15
2022-08-28T03:44:13.597Z,9.15
2022-08-28T03:46:44.332Z,5.50
2022-08-28T03:49:15.923Z,6.65
2022-08-28T03:51:47.344Z,5.92
2022-08-28T03:54:18.385Z,5.20
2022-08-28T03:56:52.175Z,7.67
2022-08-28T03:59:22.891Z,7.70
2022-08-28T04:01:56.706Z,9.43
2022-08-28T04:04:27.635Z,5.55
2022-08-28T04:07:03.252Z,5.80
2022-08-28T04:09:33.267Z,6.60
2022-08-28T04:12:04.455Z,6.78
2022-08-28T04:14:37.684Z,7.12
2022-08-28T04:17:08.672Z,6.67
2022-08-28T04:19:41.264Z,7.90
2022-08-28T04:22:12.327Z,7.35
2022-08-28T04:24:48.023Z,5.62
2022-08-28T04:27:23.479Z,5.25
2022-08-28T04:29:53.232Z,5.17
2022-08-28T04:32:24.828Z,7.37
2022-08-28T04:34:56.120Z,5.50
2022-08-28T04:37:27.992Z,4.85
2022-08-28T04:39:58.690Z,5.83
2022-08-28T04:42:30.060Z,5.53
2022-08-28T04:45:01.367Z,5.53
2022-08-28T04:47:32.277Z,7.10
2022-08-28T04:50:03.813Z,6.70
2022-08-28T04:52:34.625Z,6.55
2022-08-28T04:55:09.367Z,6.45
2022-08-28T04:57:40.254Z,7.10
2022-08-28T05:00:13.061Z,5.85
2022-08-28T05:02:43.905Z,4.60
2022-08-28T05:05:14.964Z,5.97
2022-08-28T05:07:46.109Z,6.60
2022-08-28T05:10:17.028Z,5.00
2022-08-28T05:12:48.293Z,6.55
2022-08-28T05:15:19.315Z,4.92
2022-08-28T05:17:51.126Z,8.55
2022-08-28T05:20:22.073Z,5.25
2022-08-28T05:22:52.976Z,5.05
2022-08-28T05:25:23.937Z,7.40
2022-08-28T05:27:55.075Z,4.12
2022-08-28T05:30:26.122Z,3.52
2022-08-28T05:32:57.239Z,3.90
2022-08-28T05:35:31.276Z,4.33
2022-08-28T05:38:01.994Z,4.75
2022-08-28T05:40:33.484Z,6.33
2022-08-28T05:43:04.447Z,4.25
2022-08-28T05:45:37.324Z,5.75
2022-08-28T05:48:08.302Z,4.22
2022-08-28T05:50:47.191Z,5.00
2022-08-28T05:53:13.504Z,3.00
2022-08-28T05:55:44.704Z,5.62
2022-08-28T05:58:18.310Z,4.45
2022-08-28T06:00:49.104Z,5.33
2022-08-28T06:03:20.228Z,5.25
2022-08-28T06:05:53.494Z,3.77
2022-08-28T06:08:24.512Z,8.55
2022-08-28T06:10:55.444Z,2.72
2022-08-28T06:13:26.945Z,2.75
2022-08-28T06:15:58.634Z,2.35
2022-08-28T06:18:30.093Z,3.47
2022-08-28T06:21:05.974Z,3.05
2022-08-28T06:23:37.352Z,2.85
2022-08-28T06:26:09.428Z,3.77
2022-08-28T06:28:40.388Z,2.33
2022-08-28T06:31:28.748Z,4.92
2022-08-28T06:33:43.651Z,4.72
2022-08-28T06:36:14.715Z,5.12
2022-08-28T06:38:46.866Z,4.80
2022-08-28T06:41:17.871Z,3.25
2022-08-28T06:43:48.978Z,4.08
2022-08-28T06:46:20.234Z,3.52
2022-08-28T06:48:51.434Z,3.80
2022-08-28T06:51:23.149Z,4.75
2022-08-28T06:53:54.866Z,2.90
2022-08-28T06:56:27.161Z,4.05
2022-08-28T06:59:00.107Z,4.90
2022-08-28T07:01:33.726Z,3.35
2022-08-28T07:04:07.401Z,5.15
2022-08-28T07:06:40.968Z,4.72
2022-08-28T07:09:13.442Z,6.70
2022-08-28T07:11:47.847Z,5.40
2022-08-28T07:14:18.762Z,3.62
2022-08-28T07:16:49.615Z,5.37
2022-08-28T07:19:21.795Z,4.65
2022-08-28T07:21:52.654Z,3.25
2022-08-28T07:24:24.593Z,4.55
2022-08-28T07:26:55.631Z,5.08
2022-08-28T07:29:26.371Z,3.10
2022-08-28T07:31:59.096Z,2.60
2022-08-28T07:34:30.283Z,3.55
2022-08-28T07:37:02.732Z,5.12
2022-08-28T07:39:34.169Z,6.17
2022-08-28T07:42:06.042Z,6.75
2022-08-28T07:44:38.609Z,4.78
2022-08-28T07:47:11.905Z,4.35
2022-08-28T07:49:43.712Z,4.97
2022-08-28T07:52:15.932Z,4.42
2022-08-28T07:54:47.054Z,4.55
2022-08-28T07:57:18.895Z,3.92
2022-08-28T07:59:51.413Z,3.10
2022-08-28T08:02:22.328Z,4.62
2022-08-28T08:04:53.696Z,3.62
2022-08-28T08:07:24.547Z,5.12
2022-08-28T08:09:55.874Z,4.10
2022-08-28T08:12:29.449Z,3.77
2022-08-28T08:15:00.254Z,3.35
2022-08-28T08:17:31.396Z,5.03
2022-08-28T08:20:02.402Z,4.95
2022-08-28T08:22:52.527Z,5.12
2022-08-28T08:25:23.641Z,6.22
2022-08-28T08:27:54.782Z,5.25
2022-08-28T08:30:25.614Z,3.90
2022-08-28T08:32:57.805Z,3.00
2022-08-28T08:35:28.903Z,3.40
2022-08-28T08:38:02.875Z,4.10
2022-08-28T08:40:32.614Z,2.75
2022-08-28T08:43:05.638Z,3.37
2022-08-28T08:45:38.644Z,2.75
2022-08-28T08:48:10.962Z,4.28
2022-08-28T08:50:43.619Z,3.00
2022-08-28T08:53:19.795Z,3.25
2022-08-28T08:58:25.822Z,5.65
2022-08-28T09:00:57.554Z,4.35
2022-08-28T09:03:30.782Z,4.33
2022-08-28T09:06:04.368Z,3.92
2022-08-28T09:08:38.070Z,5.25
2022-08-28T09:11:13.104Z,4.35
2022-08-28T09:13:47.120Z,4.17
2022-08-28T09:16:20.442Z,3.83
2022-08-28T09:18:52.393Z,2.50
2022-08-28T09:21:29.279Z,3.42
2022-08-28T09:24:00.388Z,3.45
2022-08-28T09:26:31.968Z,4.75
2022-08-28T09:29:06.884Z,4.67
2022-08-28T09:31:40.112Z,4.37
2022-08-28T09:34:13.780Z,3.60
2022-08-28T09:36:44.726Z,4.03
2022-08-28T09:39:17.206Z,5.42
2022-08-28T09:41:50.488Z,3.92
2022-08-28T09:44:21.300Z,3.92
2022-08-28T09:46:54.031Z,3.62
2022-08-28T09:49:27.345Z,3.77
2022-08-28T09:52:01.454Z,3.58
2022-08-28T09:54:34.619Z,5.53
2022-08-28T09:57:06.261Z,5.37
2022-08-28T09:59:37.610Z,2.90
2022-08-28T10:02:12.225Z,3.12
2022-08-28T10:04:45.798Z,5.03
2022-08-28T10:07:17.504Z,3.17
2022-08-28T10:09:50.663Z,4.58
2022-08-28T10:12:24.374Z,7.03
2022-08-28T10:14:57.678Z,4.22
2022-08-28T10:17:31.638Z,3.40
2022-08-28T10:20:05.247Z,4.70
2022-08-28T10:22:37.256Z,3.42
2022-08-28T10:25:08.848Z,3.80
2022-08-28T10:27:42.285Z,5.12
2022-08-28T10:30:17.592Z,6.03
2022-08-28T10:32:53.033Z,4.05
2022-08-28T10:35:26.750Z,3.17
2022-08-28T10:38:04.274Z,3.50
2022-08-28T10:40:40.615Z,3.92
2022-08-28T10:43:14.089Z,5.30
2022-08-28T10:45:45.440Z,4.70
2022-08-28T10:48:20.280Z,3.72
2022-08-28T10:50:56.012Z,6.53
2022-08-28T10:53:32.166Z,6.00
2022-08-28T10:56:05.418Z,10.13
2022-08-28T10:58:39.005Z,6.28
2022-08-28T11:01:12.827Z,4.75
2022-08-28T11:03:49.239Z,4.78
2022-08-28T11:08:53.502Z,6.15
2022-08-28T11:11:27.036Z,4.97
2022-08-28T11:14:00.926Z,4.90
2022-08-28T11:16:32.577Z,6.22
2022-08-28T11:19:05.891Z,4.55
2022-08-28T11:24:35.563Z,4.55
2022-08-28T11:27:13.726Z,7.10
2022-08-28T11:30:22.992Z,6.70
2022-08-28T11:32:31.544Z,5.35
2022-08-28T11:35:08.276Z,6.10
2022-08-28T11:37:45.156Z,5.50
2022-08-28T11:40:19.812Z,6.50
2022-08-28T11:42:54.355Z,5.22
2022-08-28T11:45:36.515Z,7.70
2022-08-28T11:48:08.792Z,5.25
2022-08-28T11:50:43.390Z,7.53
2022-08-28T11:55:53.827Z,6.67
2022-08-28T12:02:05.382Z,7.90
2022-08-28T12:08:28.488Z,7.03
2022-08-28T12:11:02.598Z,7.30
2022-08-28T12:14:21.456Z,9.73
2022-08-28T12:16:59.123Z,8.70
2022-08-28T12:19:41.153Z,7.12
2022-08-28T12:34:26.705Z,13.60
2022-08-28T12:37:08.640Z,25.00
2022-08-28T12:59:10.011Z,11.25
2022-08-28T13:04:44.232Z,10.13
2022-08-28T13:07:40.639Z,8.28
2022-08-28T13:12:55.359Z,8.83
2022-08-28T13:15:24.425Z,12.43
2022-08-28T13:17:56.184Z,10.80
2022-08-28T13:23:51.679Z,11.33
2022-08-28T13:26:24.901Z,11.83
2022-08-28T13:28:57.719Z,10.43
2022-08-28T13:31:29.398Z,12.10
2022-08-28T13:34:02.632Z,11.75
2022-08-28T13:36:39.054Z,6.80
2022-08-28T13:39:10.991Z,8.08
2022-08-28T13:41:42.134Z,8.88
2022-08-28T13:44:15.505Z,9.68
2022-08-28T13:46:46.553Z,10.53
2022-08-28T13:49:18.462Z,11.55
2022-08-28T13:51:49.558Z,9.93
2022-08-28T13:54:21.931Z,12.70
2022-08-28T13:56:53.728Z,12.15
2022-08-28T13:59:32.071Z,12.33
2022-08-28T14:02:06.776Z,11.20
2022-08-28T14:04:38.162Z,12.25
2022-08-28T14:07:09.386Z,10.40
2022-08-28T14:09:43.087Z,8.23
2022-08-28T14:12:31.475Z,12.60
2022-08-28T14:14:58.647Z,10.18
2022-08-28T14:17:29.563Z,14.35
2022-08-28T14:20:03.192Z,12.43
2022-08-28T14:22:35.674Z,9.50
2022-08-28T14:25:10.798Z,8.78
2022-08-28T14:27:42.637Z,9.78
2022-08-28T14:30:18.012Z,9.80
2022-08-28T14:33:12.193Z,8.58
2022-08-28T14:38:54.507Z,7.12
2022-08-28T14:41:29.565Z,10.78
2022-08-28T14:44:01.572Z,8.35
2022-08-28T14:46:41.294Z,7.95
2022-08-28T14:49:13.704Z,7.55
2022-08-28T14:54:47.626Z,11.22
2022-08-28T14:57:20.602Z,10.80
2022-08-28T14:59:51.372Z,8.88
2022-08-28T15:02:22.072Z,8.45
2022-08-28T15:04:57.132Z,7.83
2022-08-28T15:07:30.014Z,8.80
2022-08-28T15:10:05.205Z,9.38
2022-08-28T15:15:45.569Z,9.18
2022-08-28T15:24:13.482Z,12.18
2022-08-28T15:26:51.935Z,8.85
2022-08-28T15:29:23.254Z,9.60
2022-08-28T15:31:57.163Z,10.00
2022-08-28T15:34:35.347Z,9.58
2022-08-28T15:40:46.166Z,9.00
2022-08-28T15:43:17.215Z,11.53
2022-08-28T15:45:49.311Z,8.93
2022-08-28T15:48:22.770Z,9.83
2022-08-28T15:50:55.453Z,11.50
2022-08-28T16:00:20.970Z,9.48
2022-08-28T16:05:53.705Z,10.08
2022-08-28T16:08:24.463Z,16.40
2022-08-28T16:10:57.413Z,9.78
2022-08-28T16:13:28.670Z,7.78
2022-08-28T16:16:00.390Z,9.40
2022-08-28T16:18:36.055Z,8.65
2022-08-28T16:21:08.338Z,11.85
2022-08-28T16:24:04.447Z,10.93
2022-08-28T16:32:13.849Z,12.07
2022-08-28T16:34:45.276Z,10.18
2022-08-28T16:37:19.503Z,11.55
2022-08-28T16:39:49.267Z,11.63
2022-08-28T16:42:21.408Z,14.18
2022-08-28T16:45:07.818Z,11.12
2022-08-28T16:47:37.958Z,11.68
2022-08-28T16:50:13.613Z,12.23
2022-08-28T16:52:44.929Z,11.80
2022-08-28T16:55:20.404Z,16.23
2022-08-28T16:57:51.255Z,9.98
2022-08-28T17:00:22.440Z,13.50
2022-08-28T17:02:56.861Z,11.18
2022-08-28T17:05:27.799Z,14.47
2022-08-28T17:07:58.940Z,12.33
2022-08-28T17:10:39.433Z,8.35
2022-08-28T17:13:16.586Z,15.30
2022-08-28T17:15:47.470Z,15.35
2022-08-28T17:18:18.527Z,10.88
2022-08-28T17:20:50.839Z,14.10
2022-08-28T17:23:21.808Z,13.53
2022-08-28T17:25:52.820Z,14.50
2022-08-28T17:28:32.518Z,13.72
2022-08-28T17:31:14.254Z,20.00
2022-08-28T17:33:47.227Z,10.98
2022-08-28T17:36:30.740Z,14.13
2022-08-28T17:39:13.190Z,16.45
2022-08-28T17:41:51.206Z,13.22
2022-08-28T17:44:29.302Z,10.85
2022-08-28T17:47:00.315Z,13.38
2022-08-28T17:49:35.892Z,14.00
2022-08-28T17:52:06.778Z,11.53
2022-08-28T17:54:39.300Z,11.83
2022-08-28T17:57:10.287Z,15.00
2022-08-28T17:59:41.492Z,11.83
2022-08-28T18:02:13.081Z,9.43
2022-08-28T18:04:43.891Z,13.10
2022-08-28T18:07:18.198Z,10.13
2022-08-28T18:09:53.234Z,10.43
2022-08-28T18:12:24.071Z,9.78
2022-08-28T18:14:56.222Z,13.80
2022-08-28T18:17:30.952Z,9.68
2022-08-28T18:20:03.339Z,10.68
2022-08-28T18:22:35.575Z,13.05
2022-08-28T18:25:13.357Z,9.90
2022-08-28T18:27:45.688Z,8.33
2022-08-28T18:30:20.614Z,10.10
2022-08-28T18:33:04.360Z,11.57
2022-08-28T18:35:37.146Z,12.93
2022-08-28T18:38:10.885Z,9.70
2022-08-28T18:40:43.523Z,8.18
2022-08-28T18:43:15.097Z,10.95
2022-08-28T18:45:47.413Z,11.50
2022-08-28T18:48:19.724Z,8.65
2022-08-28T18:50:53.099Z,11.25
2022-08-28T18:53:25.379Z,9.75
2022-08-28T18:56:00.283Z,9.93
2022-08-28T18:58:31.499Z,10.68
2022-08-28T19:01:17.003Z,9.78
2022-08-28T19:03:36.506Z,11.78
2022-08-28T19:06:08.061Z,11.18
2022-08-28T19:08:39.140Z,8.65
2022-08-28T19:11:13.054Z,9.78
2022-08-28T19:13:44.901Z,8.55
2022-08-28T19:16:18.325Z,8.50
2022-08-28T19:18:52.956Z,11.30
2022-08-28T19:21:22.295Z,11.95
2022-08-28T19:23:55.925Z,9.98
2022-08-28T19:26:28.606Z,9.60
2022-08-28T19:28:59.551Z,10.50
2022-08-28T19:31:30.881Z,10.10
2022-08-28T19:34:03.663Z,8.98
2022-08-28T19:36:34.894Z,11.43
2022-08-28T19:39:06.551Z,9.33
2022-08-28T19:41:38.114Z,10.10
2022-08-28T19:44:09.491Z,12.20
2022-08-28T19:46:41.349Z,11.60
2022-08-28T19:49:12.088Z,12.47
2022-08-28T19:51:43.940Z,10.30
2022-08-28T19:54:16.195Z,10.18
2022-08-28T19:56:47.240Z,13.95
2022-08-28T19:59:18.158Z,8.28
2022-08-28T20:01:49.166Z,11.38
2022-08-28T20:04:20.038Z,8.83
2022-08-28T20:06:50.946Z,9.20
2022-08-28T20:09:21.827Z,7.72
2022-08-28T20:11:53.981Z,11.00
2022-08-28T20:14:25.232Z,9.95
2022-08-28T20:17:01.719Z,9.75
2022-08-28T20:19:32.756Z,7.00
2022-08-28T20:22:04.970Z,8.50
2022-08-28T20:24:36.219Z,8.03
2022-08-28T20:27:07.334Z,10.35
2022-08-28T20:29:40.245Z,10.08
2022-08-28T20:32:41.039Z,7.90
2022-08-28T20:35:16.901Z,9.20
2022-08-28T20:41:09.682Z,6.72
2022-08-28T20:43:44.626Z,7.75
2022-08-28T20:46:53.849Z,9.05
2022-08-28T20:49:39.305Z,11.22
2022-08-28T20:52:14.435Z,8.48
2022-08-28T20:55:11.590Z,9.78
2022-08-28T20:57:44.302Z,9.63
2022-08-28T21:00:15.635Z,8.45
2022-08-28T21:02:46.872Z,10.20
2022-08-28T21:05:17.597Z,8.38
2022-08-28T21:07:49.153Z,8.30
2022-08-28T21:10:20.218Z,8.83
2022-08-28T21:12:51.234Z,7.95
2022-08-28T21:15:22.127Z,10.08
2022-08-28T21:17:56.178Z,10.15
2022-08-28T21:20:30.973Z,9.68
2022-08-28T21:23:01.857Z,11.28
2022-08-28T21:25:32.792Z,9.73
2022-08-28T21:28:04.204Z,10.90
2022-08-28T21:30:35.577Z,13.53
2022-08-28T21:33:06.737Z,15.32
2022-08-28T21:35:37.673Z,15.98
2022-08-28T21:38:08.510Z,13.50
2022-08-28T21:40:39.607Z,10.30
2022-08-28T21:43:11.022Z,14.73
2022-08-28T21:45:42.971Z,16.85
2022-08-28T21:48:14.086Z,13.55
2022-08-28T21:50:46.585Z,14.38
2022-08-28T21:53:19.871Z,13.03
2022-08-28T21:55:52.227Z,12.28
2022-08-28T21:58:25.890Z,12.47
2022-08-28T22:00:58.805Z,13.20
2022-08-28T22:03:31.724Z,18.60
2022-08-28T22:06:02.735Z,14.78
2022-08-28T22:08:33.643Z,16.37
2022-08-28T22:11:04.549Z,14.80
2022-08-28T22:13:35.695Z,15.58
2022-08-28T22:16:07.958Z,13.32
2022-08-28T22:18:39.304Z,13.30
2022-08-28T22:21:13.929Z,12.18
2022-08-28T22:23:45.083Z,15.38
2022-08-28T22:26:18.477Z,14.47
2022-08-28T22:28:49.922Z,14.00
2022-08-28T22:31:20.967Z,12.88
2022-08-28T22:33:52.519Z,11.65
2022-08-28T22:36:24.496Z,13.68
2022-08-28T22:38:56.994Z,12.30
2022-08-28T22:41:29.249Z,10.65
2022-08-28T22:44:00.780Z,10.65
2022-08-28T22:46:32.240Z,12.93
2022-08-28T22:49:03.291Z,14.23
2022-08-28T22:51:36.208Z,12.13
2022-08-28T22:54:07.469Z,16.50
2022-08-28T22:56:38.383Z,16.40
2022-08-28T22:59:09.221Z,13.53
2022-08-28T23:01:42.271Z,11.28
2022-08-28T23:04:14.516Z,15.93
2022-08-28T23:06:45.805Z,15.00
2022-08-28T23:09:16.546Z,12.20
2022-08-28T23:11:47.196Z,12.63
2022-08-28T23:14:18.194Z,12.23
2022-08-28T23:16:49.255Z,13.08
2022-08-28T23:19:21.265Z,11.38
2022-08-28T23:21:52.914Z,12.47
2022-08-28T23:24:23.870Z,13.15
2022-08-28T23:26:54.739Z,11.25
2022-08-28T23:29:26.080Z,11.20
2022-08-28T23:31:56.865Z,10.28
2022-08-28T23:34:29.297Z,11.80
2022-08-28T23:37:00.148Z,14.35
2022-08-28T23:39:35.724Z,17.57
2022-08-28T23:42:06.931Z,19.12
2022-08-28T23:44:38.693Z,15.72
2022-08-28T23:47:09.534Z,16.52
2022-08-28T23:49:41.558Z,13.60
2022-08-28T23:52:12.962Z,13.05
2022-08-28T23:54:48.585Z,14.95
2022-08-28T23:57:42.394Z,14.13
